sensor_id;sensor_type;location;lat;lon;timestamp;pressure;altitude;pressure_sealevel;temperature;humidity
21433;BME280;18592;49.708;10.900;2023-02-13T00:01:11;100733.31;;;7.04;55.76
21433;BME280;18592;49.708;10.900;2023-02-13T00:03:15;100731.13;;;7.00;55.55
21433;BME280;18592;49.708;10.900;2023-02-13T00:05:17;100731.47;;;6.97;55.52
21433;BME280;18592;49.708;10.900;2023-02-13T00:07:19;100729.28;;;6.92;55.58
21433;BME280;18592;49.708;10.900;2023-02-13T00:09:20;100725.22;;;6.88;55.48
21433;BME280;18592;49.708;10.900;2023-02-13T00:11:22;100729.97;;;6.86;55.61
21433;BME280;18592;49.708;10.900;2023-02-13T00:13:23;100731.34;;;6.82;55.40
21433;BME280;18592;49.708;10.900;2023-02-13T00:15:25;100729.97;;;6.78;55.43
21433;BME280;18592;49.708;10.900;2023-02-13T00:17:27;100720.53;;;6.74;55.59
21433;BME280;18592;49.708;10.900;2023-02-13T00:19:29;100722.72;;;6.71;55.64
21433;BME280;18592;49.708;10.900;2023-02-13T00:21:30;100718.69;;;6.67;55.46
21433;BME280;18592;49.708;10.900;2023-02-13T00:23:34;100720.22;;;6.61;55.54
21433;BME280;18592;49.708;10.900;2023-02-13T00:25:37;100722.44;;;6.58;55.31
21433;BME280;18592;49.708;10.900;2023-02-13T00:27:39;100722.94;;;6.53;55.38
21433;BME280;18592;49.708;10.900;2023-02-13T00:29:40;100722.59;;;6.48;55.58
21433;BME280;18592;49.708;10.900;2023-02-13T00:31:49;100716.84;;;6.43;55.51
21433;BME280;18592;49.708;10.900;2023-02-13T00:33:51;100721.78;;;6.39;55.41
21433;BME280;18592;49.708;10.900;2023-02-13T00:36:11;100716.19;;;6.33;55.52
21433;BME280;18592;49.708;10.900;2023-02-13T00:38:13;100722.78;;;6.30;55.46
21433;BME280;18592;49.708;10.900;2023-02-13T00:40:14;100725.16;;;6.25;55.54
21433;BME280;18592;49.708;10.900;2023-02-13T00:42:16;100717.56;;;6.21;55.18
21433;BME280;18592;49.708;10.900;2023-02-13T00:44:24;100728.72;;;6.18;55.80
21433;BME280;18592;49.708;10.900;2023-02-13T00:46:27;100722.97;;;6.13;55.43
21433;BME280;18592;49.708;10.900;2023-02-13T00:48:32;100718.91;;;6.09;55.54
21433;BME280;18592;49.708;10.900;2023-02-13T00:50:34;100723.31;;;6.02;55.57
21433;BME280;18592;49.708;10.900;2023-02-13T00:52:39;100736.16;;;6.00;55.86
21433;BME280;18592;49.708;10.900;2023-02-13T00:54:41;100724.97;;;5.95;55.49
21433;BME280;18592;49.708;10.900;2023-02-13T00:56:42;100727.34;;;5.90;56.01
21433;BME280;18592;49.708;10.900;2023-02-13T00:58:46;100722.13;;;5.88;55.59
21433;BME280;18592;49.708;10.900;2023-02-13T01:00:48;100734.13;;;5.86;55.78
21433;BME280;18592;49.708;10.900;2023-02-13T01:02:50;100732.75;;;5.82;55.76
21433;BME280;18592;49.708;10.900;2023-02-13T01:04:51;100732.41;;;5.76;55.67
21433;BME280;18592;49.708;10.900;2023-02-13T01:06:53;100729.16;;;5.73;55.63
21433;BME280;18592;49.708;10.900;2023-02-13T01:08:55;100727.81;;;5.69;56.11
21433;BME280;18592;49.708;10.900;2023-02-13T01:10:56;100727.28;;;5.65;55.92
21433;BME280;18592;49.708;10.900;2023-02-13T01:13:01;100729.47;;;5.62;55.78
21433;BME280;18592;49.708;10.900;2023-02-13T01:15:04;100725.94;;;5.61;55.82
21433;BME280;18592;49.708;10.900;2023-02-13T01:17:06;100731.69;;;5.58;56.24
21433;BME280;18592;49.708;10.900;2023-02-13T01:19:14;100738.41;;;5.54;55.95
21433;BME280;18592;49.708;10.900;2023-02-13T01:21:18;100730.47;;;5.53;55.97
21433;BME280;18592;49.708;10.900;2023-02-13T01:23:20;100743.47;;;5.49;56.26
21433;BME280;18592;49.708;10.900;2023-02-13T01:25:22;100735.72;;;5.46;56.34
21433;BME280;18592;49.708;10.900;2023-02-13T01:27:24;100733.34;;;5.43;56.48
21433;BME280;18592;49.708;10.900;2023-02-13T01:29:26;100732.47;;;5.43;56.49
21433;BME280;18592;49.708;10.900;2023-02-13T01:31:27;100728.06;;;5.42;56.27
21433;BME280;18592;49.708;10.900;2023-02-13T01:33:29;100723.69;;;5.41;56.47
21433;BME280;18592;49.708;10.900;2023-02-13T01:35:31;100723.03;;;5.39;56.33
21433;BME280;18592;49.708;10.900;2023-02-13T01:37:32;100715.22;;;5.36;55.87
21433;BME280;18592;49.708;10.900;2023-02-13T01:39:34;100721.63;;;5.35;55.90
21433;BME280;18592;49.708;10.900;2023-02-13T01:41:36;100726.53;;;5.31;56.39
21433;BME280;18592;49.708;10.900;2023-02-13T01:43:58;100725.16;;;5.27;56.25
21433;BME280;18592;49.708;10.900;2023-02-13T01:46:00;100734.31;;;5.26;56.25
21433;BME280;18592;49.708;10.900;2023-02-13T01:48:07;100730.22;;;5.22;56.24
21433;BME280;18592;49.708;10.900;2023-02-13T01:52:39;100720.75;;;5.18;56.38
21433;BME280;18592;49.708;10.900;2023-02-13T01:54:43;100721.75;;;5.17;56.23
21433;BME280;18592;49.708;10.900;2023-02-13T01:56:49;100723.09;;;5.13;56.41
21433;BME280;18592;49.708;10.900;2023-02-13T01:58:57;100726.78;;;5.12;56.85
21433;BME280;18592;49.708;10.900;2023-02-13T02:01:00;100726.78;;;5.12;56.76
21433;BME280;18592;49.708;10.900;2023-02-13T02:03:13;100730.00;;;5.07;56.90
21433;BME280;18592;49.708;10.900;2023-02-13T02:05:18;100732.69;;;5.07;56.59
21433;BME280;18592;49.708;10.900;2023-02-13T02:07:24;100721.34;;;5.04;56.59
21433;BME280;18592;49.708;10.900;2023-02-13T02:09:29;100726.94;;;5.02;56.35
21433;BME280;18592;49.708;10.900;2023-02-13T02:11:50;100720.84;;;5.00;56.75
21433;BME280;18592;49.708;10.900;2023-02-13T02:13:53;100712.75;;;5.00;56.33
21433;BME280;18592;49.708;10.900;2023-02-13T02:16:05;100708.50;;;4.98;56.98
21433;BME280;18592;49.708;10.900;2023-02-13T02:18:21;100713.19;;;4.96;56.54
21433;BME280;18592;49.708;10.900;2023-02-13T02:20:53;100711.53;;;4.95;56.64
21433;BME280;18592;49.708;10.900;2023-02-13T02:27:54;100719.41;;;4.88;57.11
21433;BME280;18592;49.708;10.900;2023-02-13T02:32:41;100718.72;;;4.86;57.42
21433;BME280;18592;49.708;10.900;2023-02-13T02:41:41;100721.94;;;4.82;57.71
21433;BME280;18592;49.708;10.900;2023-02-13T02:44:24;100713.81;;;4.82;57.06
21433;BME280;18592;49.708;10.900;2023-02-13T02:46:33;100715.53;;;4.83;57.26
21433;BME280;18592;49.708;10.900;2023-02-13T02:48:48;100721.06;;;4.81;57.51
21433;BME280;18592;49.708;10.900;2023-02-13T02:51:22;100729.72;;;4.85;57.61
21433;BME280;18592;49.708;10.900;2023-02-13T02:53:50;100725.16;;;4.85;57.54
21433;BME280;18592;49.708;10.900;2023-02-13T03:00:33;100723.28;;;4.86;57.18
21433;BME280;18592;49.708;10.900;2023-02-13T03:02:55;100728.00;;;4.84;56.55
21433;BME280;18592;49.708;10.900;2023-02-13T03:05:23;100722.78;;;4.82;57.14
21433;BME280;18592;49.708;10.900;2023-02-13T03:07:44;100713.66;;;4.83;57.34
21433;BME280;18592;49.708;10.900;2023-02-13T03:09:51;100715.53;;;4.83;57.04
21433;BME280;18592;49.708;10.900;2023-02-13T03:12:22;100718.38;;;4.81;56.71
21433;BME280;18592;49.708;10.900;2023-02-13T03:14:43;100731.03;;;4.81;57.54
21433;BME280;18592;49.708;10.900;2023-02-13T03:16:47;100725.47;;;4.82;56.54
21433;BME280;18592;49.708;10.900;2023-02-13T03:19:19;100724.81;;;4.80;56.92
21433;BME280;18592;49.708;10.900;2023-02-13T03:21:52;100729.66;;;4.77;56.79
21433;BME280;18592;49.708;10.900;2023-02-13T03:24:22;100725.13;;;4.77;57.02
21433;BME280;18592;49.708;10.900;2023-02-13T03:26:41;100731.69;;;4.75;57.40
21433;BME280;18592;49.708;10.900;2023-02-13T03:32:10;100717.31;;;4.74;56.86
21433;BME280;18592;49.708;10.900;2023-02-13T03:34:23;100726.59;;;4.72;56.45
21433;BME280;18592;49.708;10.900;2023-02-13T03:36:48;100733.00;;;4.71;57.24
21433;BME280;18592;49.708;10.900;2023-02-13T03:41:19;100728.06;;;4.66;57.01
21433;BME280;18592;49.708;10.900;2023-02-13T03:43:23;100733.34;;;4.68;57.09
21433;BME280;18592;49.708;10.900;2023-02-13T03:45:36;100727.22;;;4.66;57.12
21433;BME280;18592;49.708;10.900;2023-02-13T03:47:56;100738.03;;;4.66;56.84
21433;BME280;18592;49.708;10.900;2023-02-13T03:50:04;100733.34;;;4.68;56.74
21433;BME280;18592;49.708;10.900;2023-02-13T03:52:18;100738.38;;;4.63;57.10
21433;BME280;18592;49.708;10.900;2023-02-13T03:57:18;100738.50;;;4.61;56.61
21433;BME280;18592;49.708;10.900;2023-02-13T03:59:42;100740.38;;;4.61;57.46
21433;BME280;18592;49.708;10.900;2023-02-13T04:01:59;100739.53;;;4.60;57.16
21433;BME280;18592;49.708;10.900;2023-02-13T04:04:18;100739.69;;;4.59;56.90
21433;BME280;18592;49.708;10.900;2023-02-13T04:06:56;100740.84;;;4.56;57.11
21433;BME280;18592;49.708;10.900;2023-02-13T04:09:00;100737.28;;;4.56;56.90
21433;BME280;18592;49.708;10.900;2023-02-13T04:11:20;100740.34;;;4.53;57.13
21433;BME280;18592;49.708;10.900;2023-02-13T04:13:32;100744.72;;;4.54;57.40
21433;BME280;18592;49.708;10.900;2023-02-13T04:15:42;100743.03;;;4.53;57.24
21433;BME280;18592;49.708;10.900;2023-02-13T04:17:54;100741.03;;;4.55;57.03
21433;BME280;18592;49.708;10.900;2023-02-13T04:19:57;100747.28;;;4.55;57.00
21433;BME280;18592;49.708;10.900;2023-02-13T04:22:00;100741.03;;;4.55;56.97
21433;BME280;18592;49.708;10.900;2023-02-13T04:24:02;100744.72;;;4.54;56.95
21433;BME280;18592;49.708;10.900;2023-02-13T04:26:11;100739.31;;;4.54;57.51
21433;BME280;18592;49.708;10.900;2023-02-13T04:28:15;100733.22;;;4.52;56.88
21433;BME280;18592;49.708;10.900;2023-02-13T04:30:17;100731.53;;;4.50;57.08
21433;BME280;18592;49.708;10.900;2023-02-13T04:32:19;100728.00;;;4.50;57.44
21433;BME280;18592;49.708;10.900;2023-02-13T04:34:20;100735.25;;;4.49;56.97
21433;BME280;18592;49.708;10.900;2023-02-13T04:36:22;100740.66;;;4.49;57.21
21433;BME280;18592;49.708;10.900;2023-02-13T04:38:23;100728.00;;;4.50;57.29
21433;BME280;18592;49.708;10.900;2023-02-13T04:40:25;100737.78;;;4.51;56.97
21433;BME280;18592;49.708;10.900;2023-02-13T04:42:27;100745.88;;;4.51;57.24
21433;BME280;18592;49.708;10.900;2023-02-13T04:44:29;100741.63;;;4.48;57.27
21433;BME280;18592;49.708;10.900;2023-02-13T04:46:30;100738.09;;;4.48;57.55
21433;BME280;18592;49.708;10.900;2023-02-13T04:48:32;100736.25;;;4.48;57.16
21433;BME280;18592;49.708;10.900;2023-02-13T04:50:34;100732.53;;;4.49;57.33
21433;BME280;18592;49.708;10.900;2023-02-13T04:52:35;100736.94;;;4.50;57.29
21433;BME280;18592;49.708;10.900;2023-02-13T04:54:37;100732.38;;;4.51;57.34
21433;BME280;18592;49.708;10.900;2023-02-13T04:56:39;100732.53;;;4.49;57.01
21433;BME280;18592;49.708;10.900;2023-02-13T04:58:40;100732.38;;;4.51;57.42
21433;BME280;18592;49.708;10.900;2023-02-13T05:00:42;100735.25;;;4.49;57.30
21433;BME280;18592;49.708;10.900;2023-02-13T05:02:44;100734.56;;;4.47;57.67
21433;BME280;18592;49.708;10.900;2023-02-13T05:04:45;100740.78;;;4.48;57.60
21433;BME280;18592;49.708;10.900;2023-02-13T05:06:47;100737.09;;;4.49;57.53
21433;BME280;18592;49.708;10.900;2023-02-13T05:08:48;100741.63;;;4.48;57.20
21433;BME280;18592;49.708;10.900;2023-02-13T05:10:50;100733.72;;;4.47;57.78
21433;BME280;18592;49.708;10.900;2023-02-13T05:12:51;100733.53;;;4.48;57.40
21433;BME280;18592;49.708;10.900;2023-02-13T05:14:53;100738.81;;;4.50;57.19
21433;BME280;18592;49.708;10.900;2023-02-13T05:16:55;100744.22;;;4.50;56.73
21433;BME280;18592;49.708;10.900;2023-02-13T05:18:56;100737.94;;;4.49;56.87
21433;BME280;18592;49.708;10.900;2023-02-13T05:20:58;100745.38;;;4.47;57.28
21433;BME280;18592;49.708;10.900;2023-02-13T05:23:18;100753.47;;;4.47;57.68
21433;BME280;18592;49.708;10.900;2023-02-13T05:25:23;100754.47;;;4.46;57.37
21433;BME280;18592;49.708;10.900;2023-02-13T05:27:24;100760.72;;;4.47;57.30
21433;BME280;18592;49.708;10.900;2023-02-13T05:29:26;100756.16;;;4.47;57.54
21433;BME280;18592;49.708;10.900;2023-02-13T05:31:28;100760.84;;;4.45;57.19
21433;BME280;18592;49.708;10.900;2023-02-13T05:33:30;100760.16;;;4.43;57.11
21433;BME280;18592;49.708;10.900;2023-02-13T05:35:31;100761.88;;;4.44;57.22
21433;BME280;18592;49.708;10.900;2023-02-13T05:37:33;100760.16;;;4.43;56.90
21433;BME280;18592;49.708;10.900;2023-02-13T05:39:34;100763.91;;;4.42;57.23
21433;BME280;18592;49.708;10.900;2023-02-13T05:41:36;100758.50;;;4.42;57.02
21433;BME280;18592;49.708;10.900;2023-02-13T05:43:39;100758.63;;;4.41;57.65
21433;BME280;18592;49.708;10.900;2023-02-13T05:45:40;100765.06;;;4.40;57.37
21433;BME280;18592;49.708;10.900;2023-02-13T05:47:46;100764.22;;;4.39;57.43
21433;BME280;18592;49.708;10.900;2023-02-13T05:49:50;100762.50;;;4.38;57.84
21433;BME280;18592;49.708;10.900;2023-02-13T05:51:52;100760.81;;;4.37;57.32
21433;BME280;18592;49.708;10.900;2023-02-13T05:53:54;100757.41;;;4.35;57.24
21433;BME280;18592;49.708;10.900;2023-02-13T05:55:58;100761.97;;;4.35;57.25
21433;BME280;18592;49.708;10.900;2023-02-13T05:58:00;100762.81;;;4.35;57.15
21433;BME280;18592;49.708;10.900;2023-02-13T06:00:03;100762.13;;;4.33;57.23
21433;BME280;18592;49.708;10.900;2023-02-13T06:02:06;100770.91;;;4.35;57.10
21433;BME280;18592;49.708;10.900;2023-02-13T06:04:08;100773.78;;;4.34;57.84
21433;BME280;18592;49.708;10.900;2023-02-13T06:06:10;100775.63;;;4.33;56.72
21433;BME280;18592;49.708;10.900;2023-02-13T06:08:11;100776.63;;;4.32;57.09
21433;BME280;18592;49.708;10.900;2023-02-13T06:10:13;100776.78;;;4.31;57.31
21433;BME280;18592;49.708;10.900;2023-02-13T06:12:14;100777.63;;;4.31;57.27
21433;BME280;18592;49.708;10.900;2023-02-13T06:14:16;100784.03;;;4.30;57.28
21433;BME280;18592;49.708;10.900;2023-02-13T06:16:18;100784.19;;;4.29;57.57
21433;BME280;18592;49.708;10.900;2023-02-13T06:18:19;100790.75;;;4.26;57.14
21433;BME280;18592;49.708;10.900;2023-02-13T06:20:21;100789.03;;;4.25;57.65
21433;BME280;18592;49.708;10.900;2023-02-13T06:22:32;100782.81;;;4.25;57.46
21433;BME280;18592;49.708;10.900;2023-02-13T06:24:40;100792.78;;;4.24;57.75
21433;BME280;18592;49.708;10.900;2023-02-13T06:26:41;100794.06;;;4.20;56.91
21433;BME280;18592;49.708;10.900;2023-02-13T06:28:43;100802.16;;;4.20;57.31
21433;BME280;18592;49.708;10.900;2023-02-13T06:30:45;100795.09;;;4.19;57.51
21433;BME280;18592;49.708;10.900;2023-02-13T06:32:47;100804.16;;;4.18;57.40
21433;BME280;18592;49.708;10.900;2023-02-13T06:34:49;100803.31;;;4.18;57.79
21433;BME280;18592;49.708;10.900;2023-02-13T06:36:50;100803.31;;;4.18;57.24
21433;BME280;18592;49.708;10.900;2023-02-13T06:38:53;100813.13;;;4.19;57.56
21433;BME280;18592;49.708;10.900;2023-02-13T06:40:59;100815.53;;;4.22;57.38
21433;BME280;18592;49.708;10.900;2023-02-13T06:43:05;100820.06;;;4.21;57.43
21433;BME280;18592;49.708;10.900;2023-02-13T06:45:07;100810.25;;;4.20;57.01
21433;BME280;18592;49.708;10.900;2023-02-13T06:47:09;100817.53;;;4.20;57.41
21433;BME280;18592;49.708;10.900;2023-02-13T06:49:11;100821.91;;;4.21;57.54
21433;BME280;18592;49.708;10.900;2023-02-13T06:51:13;100817.38;;;4.21;57.48
21433;BME280;18592;49.708;10.900;2023-02-13T06:53:14;100829.16;;;4.20;57.38
21433;BME280;18592;49.708;10.900;2023-02-13T06:55:16;100820.06;;;4.21;57.47
21433;BME280;18592;49.708;10.900;2023-02-13T06:57:18;100829.16;;;4.20;58.37
21433;BME280;18592;49.708;10.900;2023-02-13T06:59:20;100833.56;;;4.21;57.64
21433;BME280;18592;49.708;10.900;2023-02-13T07:01:21;100829.16;;;4.20;57.85
21433;BME280;18592;49.708;10.900;2023-02-13T07:03:23;100831.72;;;4.22;57.84
21433;BME280;18592;49.708;10.900;2023-02-13T07:05:25;100830.56;;;4.24;58.13
21433;BME280;18592;49.708;10.900;2023-02-13T07:07:27;100832.56;;;4.22;57.45
21433;BME280;18592;49.708;10.900;2023-02-13T07:09:30;100827.16;;;4.22;57.53
21433;BME280;18592;49.708;10.900;2023-02-13T07:11:32;100832.69;;;4.21;58.08
21433;BME280;18592;49.708;10.900;2023-02-13T07:13:33;100839.66;;;4.23;57.80
21433;BME280;18592;49.708;10.900;2023-02-13T07:15:36;100835.97;;;4.24;57.64
21433;BME280;18592;49.708;10.900;2023-02-13T07:17:38;100832.41;;;4.24;57.86
21433;BME280;18592;49.708;10.900;2023-02-13T07:19:40;100843.03;;;4.25;57.97
21433;BME280;18592;49.708;10.900;2023-02-13T07:21:41;100846.06;;;4.22;58.40
21433;BME280;18592;49.708;10.900;2023-02-13T07:23:43;100832.69;;;4.21;57.66
21433;BME280;18592;49.708;10.900;2023-02-13T07:25:44;100843.03;;;4.25;57.94
21433;BME280;18592;49.708;10.900;2023-02-13T07:27:46;100838.66;;;4.24;58.02
21433;BME280;18592;49.708;10.900;2023-02-13T07:29:48;100840.50;;;4.24;57.94
21433;BME280;18592;49.708;10.900;2023-02-13T07:31:49;100834.09;;;4.25;58.01
21433;BME280;18592;49.708;10.900;2023-02-13T07:33:51;100835.09;;;4.24;57.70
21433;BME280;18592;49.708;10.900;2023-02-13T07:35:52;100841.19;;;4.26;57.86
21433;BME280;18592;49.708;10.900;2023-02-13T07:37:54;100839.34;;;4.26;57.88
21433;BME280;18592;49.708;10.900;2023-02-13T07:39:56;100839.16;;;4.28;57.72
21433;BME280;18592;49.708;10.900;2023-02-13T07:41:58;100839.91;;;4.30;57.93
21433;BME280;18592;49.708;10.900;2023-02-13T07:44:00;100839.91;;;4.30;57.83
21433;BME280;18592;49.708;10.900;2023-02-13T07:46:09;100839.91;;;4.30;58.21
21433;BME280;18592;49.708;10.900;2023-02-13T07:48:11;100835.31;;;4.30;57.99
21433;BME280;18592;49.708;10.900;2023-02-13T07:50:13;100838.88;;;4.31;57.68
21433;BME280;18592;49.708;10.900;2023-02-13T07:52:14;100838.75;;;4.32;57.96
21433;BME280;18592;49.708;10.900;2023-02-13T07:54:16;100836.72;;;4.34;57.54
21433;BME280;18592;49.708;10.900;2023-02-13T07:56:17;100834.88;;;4.35;58.10
21433;BME280;18592;49.708;10.900;2023-02-13T07:58:20;100834.03;;;4.34;58.11
21433;BME280;18592;49.708;10.900;2023-02-13T08:00:22;100831.84;;;4.38;58.11
21433;BME280;18592;49.708;10.900;2023-02-13T08:02:24;100839.81;;;4.39;58.13
21433;BME280;18592;49.708;10.900;2023-02-13T08:04:28;100834.53;;;4.38;57.79
21433;BME280;18592;49.708;10.900;2023-02-13T08:06:30;100838.78;;;4.40;57.93
21433;BME280;18592;49.708;10.900;2023-02-13T08:08:32;100844.19;;;4.40;58.12
21433;BME280;18592;49.708;10.900;2023-02-13T08:10:34;100839.50;;;4.42;57.38
21433;BME280;18592;49.708;10.900;2023-02-13T08:12:54;100843.88;;;4.43;58.23
21433;BME280;18592;49.708;10.900;2023-02-13T08:14:56;100847.25;;;4.45;57.86
21433;BME280;18592;49.708;10.900;2023-02-13T08:16:58;100838.00;;;4.48;58.04
21433;BME280;18592;49.708;10.900;2023-02-13T08:19:01;100843.94;;;4.52;58.10
21433;BME280;18592;49.708;10.900;2023-02-13T08:21:02;100838.56;;;4.52;57.92
21433;BME280;18592;49.708;10.900;2023-02-13T08:23:06;100839.25;;;4.54;58.31
21433;BME280;18592;49.708;10.900;2023-02-13T08:25:08;100839.09;;;4.55;58.46
21433;BME280;18592;49.708;10.900;2023-02-13T08:27:12;100848.75;;;4.58;57.79
21433;BME280;18592;49.708;10.900;2023-02-13T08:29:13;100845.69;;;4.61;58.41
21433;BME280;18592;49.708;10.900;2023-02-13T08:31:15;100846.41;;;4.63;57.83
21433;BME280;18592;49.708;10.900;2023-02-13T08:33:17;100841.84;;;4.63;58.30
21433;BME280;18592;49.708;10.900;2023-02-13T08:35:21;100842.56;;;4.65;58.49
21433;BME280;18592;49.708;10.900;2023-02-13T08:37:24;100841.41;;;4.68;57.98
21433;BME280;18592;49.708;10.900;2023-02-13T08:39:35;100838.34;;;4.71;57.90
21433;BME280;18592;49.708;10.900;2023-02-13T08:41:36;100841.44;;;4.76;58.28
21433;BME280;18592;49.708;10.900;2023-02-13T08:43:38;100849.41;;;4.77;57.78
21433;BME280;18592;49.708;10.900;2023-02-13T08:45:42;100841.13;;;4.79;57.74
21433;BME280;18592;49.708;10.900;2023-02-13T08:47:45;100835.56;;;4.80;57.92
21433;BME280;18592;49.708;10.900;2023-02-13T08:49:47;100836.94;;;4.84;58.30
21433;BME280;18592;49.708;10.900;2023-02-13T08:51:49;100839.47;;;4.86;58.32
21433;BME280;18592;49.708;10.900;2023-02-13T08:53:51;100836.47;;;4.89;58.43
21433;BME280;18592;49.708;10.900;2023-02-13T08:55:54;100841.56;;;4.92;58.06
21433;BME280;18592;49.708;10.900;2023-02-13T08:58:03;100838.69;;;4.93;58.15
21433;BME280;18592;49.708;10.900;2023-02-13T09:00:05;100844.78;;;4.95;57.90
21433;BME280;18592;49.708;10.900;2023-02-13T09:02:09;100843.78;;;4.96;58.63
21433;BME280;18592;49.708;10.900;2023-02-13T09:04:12;100836.22;;;5.00;58.23
21433;BME280;18592;49.708;10.900;2023-02-13T09:06:18;100841.13;;;5.04;58.53
21433;BME280;18592;49.708;10.900;2023-02-13T09:08:20;100845.38;;;5.07;58.08
21433;BME280;18592;49.708;10.900;2023-02-13T09:10:21;100846.03;;;5.09;58.44
21433;BME280;18592;49.708;10.900;2023-02-13T09:12:24;100843.03;;;5.12;58.10
21433;BME280;18592;49.708;10.900;2023-02-13T09:14:25;100848.13;;;5.15;58.26
21433;BME280;18592;49.708;10.900;2023-02-13T09:16:27;100847.81;;;5.18;58.31
21433;BME280;18592;49.708;10.900;2023-02-13T09:18:30;100843.94;;;5.21;57.80
21433;BME280;18592;49.708;10.900;2023-02-13T09:20:33;100844.63;;;5.23;58.16
21433;BME280;18592;49.708;10.900;2023-02-13T09:22:36;100846.16;;;5.25;58.23
21433;BME280;18592;49.708;10.900;2023-02-13T09:24:38;100842.09;;;5.29;58.20
21433;BME280;18592;49.708;10.900;2023-02-13T09:26:40;100844.34;;;5.34;58.40
21433;BME280;18592;49.708;10.900;2023-02-13T09:28:42;100838.44;;;5.38;57.91
21433;BME280;18592;49.708;10.900;2023-02-13T09:30:44;100846.94;;;5.43;58.25
21433;BME280;18592;49.708;10.900;2023-02-13T09:32:46;100847.28;;;5.48;58.35
21433;BME280;18592;49.708;10.900;2023-02-13T09:34:48;100844.94;;;5.53;58.09
21433;BME280;18592;49.708;10.900;2023-02-13T09:36:53;100849.19;;;5.56;58.36
21433;BME280;18592;49.708;10.900;2023-02-13T09:38:56;100843.28;;;5.60;58.59
21433;BME280;18592;49.708;10.900;2023-02-13T09:41:08;100838.41;;;5.64;58.10
21433;BME280;18592;49.708;10.900;2023-02-13T09:43:17;100847.69;;;5.69;58.53
21433;BME280;18592;49.708;10.900;2023-02-13T09:45:21;100848.22;;;5.73;58.21
21433;BME280;18592;49.708;10.900;2023-02-13T09:47:38;100840.63;;;5.76;58.42
21433;BME280;18592;49.708;10.900;2023-02-13T09:49:51;100850.97;;;5.81;58.79
21433;BME280;18592;49.708;10.900;2023-02-13T09:51:55;100845.94;;;5.86;58.20
21433;BME280;18592;49.708;10.900;2023-02-13T09:54:07;100843.59;;;5.91;58.69
21433;BME280;18592;49.708;10.900;2023-02-13T09:56:13;100846.78;;;5.95;58.47
21433;BME280;18592;49.708;10.900;2023-02-13T09:58:48;100849.03;;;5.99;58.53
21433;BME280;18592;49.708;10.900;2023-02-13T10:00:57;100851.22;;;6.04;58.32
21433;BME280;18592;49.708;10.900;2023-02-13T10:03:06;100850.91;;;6.07;59.14
21433;BME280;18592;49.708;10.900;2023-02-13T10:05:46;100844.47;;;6.08;59.96
21433;BME280;18592;49.708;10.900;2023-02-13T10:08:17;100849.22;;;6.14;59.05
21433;BME280;18592;49.708;10.900;2023-02-13T10:15:21;100844.84;;;6.29;59.59
21433;BME280;18592;49.708;10.900;2023-02-13T10:17:30;100844.16;;;6.35;59.06
21433;BME280;18592;49.708;10.900;2023-02-13T10:19:42;100847.72;;;6.44;59.10
21433;BME280;18592;49.708;10.900;2023-02-13T10:22:33;100854.34;;;6.49;59.30
21433;BME280;18592;49.708;10.900;2023-02-13T10:24:26;100838.25;;;6.56;59.14
21433;BME280;18592;49.708;10.900;2023-02-13T10:26:33;100840.28;;;6.62;58.81
21433;BME280;18592;49.708;10.900;2023-02-13T10:28:54;100842.34;;;6.68;59.02
21433;BME280;18592;49.708;10.900;2023-02-13T10:31:17;100843.50;;;6.73;59.13
21433;BME280;18592;49.708;10.900;2023-02-13T10:33:35;100840.28;;;6.78;59.33
21433;BME280;18592;49.708;10.900;2023-02-13T10:35:39;100837.91;;;6.83;59.16
21433;BME280;18592;49.708;10.900;2023-02-13T10:37:45;100835.53;;;6.88;59.23
21433;BME280;18592;49.708;10.900;2023-02-13T10:39:51;100832.97;;;6.94;59.15
21433;BME280;18592;49.708;10.900;2023-02-13T10:42:20;100832.44;;;6.99;59.36
21433;BME280;18592;49.708;10.900;2023-02-13T10:49:36;100842.25;;;7.16;59.17
21433;BME280;18592;49.708;10.900;2023-02-13T10:51:55;100836.31;;;7.21;59.25
21433;BME280;18592;49.708;10.900;2023-02-13T10:56:47;100832.56;;;7.30;59.38
21433;BME280;18592;49.708;10.900;2023-02-13T10:58:56;100829.31;;;7.34;59.16
21433;BME280;18592;49.708;10.900;2023-02-13T11:01:18;100826.06;;;7.39;59.50
21433;BME280;18592;49.708;10.900;2023-02-13T11:03:24;100834.72;;;7.42;59.40
21433;BME280;18592;49.708;10.900;2023-02-13T11:05:38;100824.84;;;7.49;59.49
21433;BME280;18592;49.708;10.900;2023-02-13T11:07:40;100820.59;;;7.55;59.35
21433;BME280;18592;49.708;10.900;2023-02-13T11:09:44;100820.06;;;7.59;59.66
21433;BME280;18592;49.708;10.900;2023-02-13T11:11:48;100813.06;;;7.65;59.13
21433;BME280;18592;49.708;10.900;2023-02-13T11:16:13;100808.78;;;7.79;59.65
21433;BME280;18592;49.708;10.900;2023-02-13T11:18:20;100808.91;;;7.85;59.48
21433;BME280;18592;49.708;10.900;2023-02-13T11:20:36;100811.94;;;7.90;59.81
21433;BME280;18592;49.708;10.900;2023-02-13T11:22:39;100804.09;;;7.95;59.63
21433;BME280;18592;49.708;10.900;2023-02-13T11:24:52;100813.41;;;8.01;59.83
21433;BME280;18592;49.708;10.900;2023-02-13T11:27:08;100813.91;;;8.04;59.63
21433;BME280;18592;49.708;10.900;2023-02-13T11:29:21;100806.06;;;8.09;59.59
21433;BME280;18592;49.708;10.900;2023-02-13T11:33:36;100815.81;;;8.18;59.80
21433;BME280;18592;49.708;10.900;2023-02-13T11:35:38;100817.84;;;8.24;59.50
21433;BME280;18592;49.708;10.900;2023-02-13T11:37:42;100813.75;;;8.28;59.50
21433;BME280;18592;49.708;10.900;2023-02-13T11:39:50;100814.91;;;8.34;59.75
21433;BME280;18592;49.708;10.900;2023-02-13T11:41:52;100811.63;;;8.39;60.11
21433;BME280;18592;49.708;10.900;2023-02-13T11:43:57;100811.75;;;8.45;60.28
21433;BME280;18592;49.708;10.900;2023-02-13T11:46:07;100814.59;;;8.52;60.19
21433;BME280;18592;49.708;10.900;2023-02-13T11:48:21;100803.38;;;8.55;59.96